createdAt,value
2022-11-26T00:00:03.666Z,99581.00
2022-11-26T00:02:31.413Z,99592.00
2022-11-26T00:05:05.587Z,99603.00
2022-11-26T00:07:39.694Z,99588.00
2022-11-26T00:10:18.859Z,99600.00
2022-11-26T00:12:52.721Z,99596.00
2022-11-26T00:15:26.118Z,99605.00
2022-11-26T00:17:59.627Z,99606.00
2022-11-26T00:20:30.961Z,99602.00
2022-11-26T00:23:05.695Z,99596.00
2022-11-26T00:25:49.639Z,99607.00
2022-11-26T00:28:39.618Z,99589.00
2022-11-26T00:31:12.644Z,99600.00
2022-11-26T00:33:45.670Z,99608.00
2022-11-26T00:36:35.691Z,99604.00
2022-11-26T00:39:12.689Z,99622.00
2022-11-26T00:41:46.708Z,99616.00
2022-11-26T00:44:31.593Z,99622.00
2022-11-26T00:47:04.610Z,99618.00
2022-11-26T00:49:31.657Z,99613.00
2022-11-26T00:52:34.661Z,99622.00
2022-11-26T00:55:10.596Z,99614.00
2022-11-26T00:57:43.664Z,99623.00
2022-11-26T01:00:22.537Z,99626.00
2022-11-26T01:02:55.615Z,99620.00
2022-11-26T01:05:24.185Z,99633.00
2022-11-26T01:07:58.751Z,99625.00
2022-11-26T01:10:33.618Z,99619.00
2022-11-26T01:13:00.477Z,99629.00
2022-11-26T01:15:34.677Z,99630.00
2022-11-26T01:18:01.557Z,99630.00
2022-11-26T01:20:36.657Z,99628.00
2022-11-26T01:23:03.555Z,99632.00
2022-11-26T01:25:36.672Z,99631.00
2022-11-26T01:28:10.663Z,99610.00
2022-11-26T01:30:37.669Z,99630.00
2022-11-26T01:33:10.641Z,99632.00
2022-11-26T01:35:43.657Z,99614.00
2022-11-26T01:38:20.640Z,99643.00
2022-11-26T01:41:14.514Z,99641.00
2022-11-26T01:43:49.655Z,99643.00
2022-11-26T01:46:18.525Z,99647.00
2022-11-26T01:48:52.663Z,99645.00
2022-11-26T01:51:28.616Z,99635.00
2022-11-26T01:54:08.671Z,99647.00
2022-11-26T01:56:41.387Z,99659.00
2022-11-26T01:59:42.679Z,99652.00
2022-11-26T02:02:09.741Z,99640.00
2022-11-26T02:04:46.696Z,99647.00
2022-11-26T02:07:13.673Z,99663.00
2022-11-26T02:09:46.663Z,99665.00
2022-11-26T02:12:13.775Z,99663.00
2022-11-26T02:14:48.643Z,99661.00
2022-11-26T02:17:36.936Z,99662.00
2022-11-26T02:20:38.675Z,99670.00
2022-11-26T02:23:34.682Z,99662.00
2022-11-26T02:26:19.709Z,99680.00
2022-11-26T02:29:08.871Z,99681.00
2022-11-26T02:32:07.670Z,99676.00
2022-11-26T02:34:43.012Z,99679.00
2022-11-26T02:37:22.699Z,99661.00
2022-11-26T02:39:49.547Z,99658.00
2022-11-26T02:42:37.700Z,99666.00
2022-11-26T02:45:11.017Z,99670.00
2022-11-26T02:47:45.699Z,99662.00
2022-11-26T02:50:42.891Z,99652.00
2022-11-26T02:53:09.848Z,99656.00
2022-11-26T02:55:46.712Z,99666.00
2022-11-26T02:58:20.672Z,99672.00
2022-11-26T03:00:53.709Z,99665.00
2022-11-26T03:03:30.698Z,99675.00
2022-11-26T03:06:07.705Z,99667.00
2022-11-26T03:08:34.556Z,99676.00
2022-11-26T03:11:07.701Z,99656.00
2022-11-26T03:13:40.734Z,99676.00
2022-11-26T03:16:07.914Z,99675.00
2022-11-26T03:18:41.718Z,99677.00
2022-11-26T03:21:15.738Z,99689.00
2022-11-26T03:23:42.570Z,99693.00
2022-11-26T03:26:09.440Z,99675.00
2022-11-26T03:28:42.673Z,99678.00
2022-11-26T03:31:09.562Z,99691.00
2022-11-26T03:33:42.674Z,99694.00
2022-11-26T03:36:09.658Z,99683.00
2022-11-26T03:38:36.494Z,99655.00
2022-11-26T03:41:10.690Z,99695.00
2022-11-26T03:43:43.688Z,99695.00
2022-11-26T03:46:10.595Z,99685.00
2022-11-26T03:48:43.716Z,99685.00
2022-11-26T03:51:10.634Z,99674.00
2022-11-26T03:53:44.726Z,99686.00
2022-11-26T03:56:11.596Z,99684.00
2022-11-26T03:58:44.706Z,99672.00
2022-11-26T04:01:12.254Z,99686.00
2022-11-26T04:03:45.722Z,99680.00
2022-11-26T04:06:12.569Z,99700.00
2022-11-26T04:08:45.691Z,99700.00
2022-11-26T04:11:12.577Z,99697.00
2022-11-26T04:13:39.428Z,99695.00
2022-11-26T04:16:13.750Z,99707.00
2022-11-26T04:18:47.733Z,99699.00
2022-11-26T04:21:14.595Z,99705.00
2022-11-26T04:23:41.449Z,99699.00
2022-11-26T04:26:14.753Z,99699.00
2022-11-26T04:28:47.748Z,99716.00
2022-11-26T04:31:20.756Z,99703.00
2022-11-26T04:33:53.709Z,99692.00
2022-11-26T04:36:26.762Z,99694.00
2022-11-26T04:38:53.623Z,99696.00
2022-11-26T04:41:26.756Z,99686.00
2022-11-26T04:43:59.705Z,99700.00
2022-11-26T04:46:26.543Z,99697.00
2022-11-26T04:48:59.738Z,99700.00
2022-11-26T04:51:26.573Z,99692.00
2022-11-26T04:54:02.988Z,99672.00
2022-11-26T04:56:36.749Z,99690.00
2022-11-26T04:59:03.630Z,99691.00
2022-11-26T05:01:36.736Z,99678.00
2022-11-26T05:04:03.652Z,99691.00
2022-11-26T05:06:36.778Z,99666.00
2022-11-26T05:09:03.877Z,99692.00
2022-11-26T05:11:37.754Z,99703.00
2022-11-26T05:14:04.665Z,99695.00
2022-11-26T05:16:37.830Z,99709.00
2022-11-26T05:19:04.705Z,99707.00
2022-11-26T05:21:37.726Z,99702.00
2022-11-26T05:24:05.053Z,99716.00
2022-11-26T05:26:38.731Z,99707.00
2022-11-26T05:29:11.750Z,99718.00
2022-11-26T05:31:44.836Z,99717.00
2022-11-26T05:34:11.769Z,99732.00
2022-11-26T05:36:44.732Z,99743.00
2022-11-26T05:39:11.576Z,99760.00
2022-11-26T05:41:44.752Z,99749.00
2022-11-26T05:44:11.597Z,99740.00
2022-11-26T05:46:47.804Z,99753.00
2022-11-26T05:49:14.707Z,99751.00
2022-11-26T05:51:41.588Z,99748.00
2022-11-26T05:54:18.732Z,99751.00
2022-11-26T05:56:45.624Z,99732.00
2022-11-26T05:59:18.782Z,99745.00
2022-11-26T06:01:45.713Z,99753.00
2022-11-26T06:04:18.783Z,99751.00
2022-11-26T06:06:45.688Z,99746.00
2022-11-26T06:09:18.789Z,99759.00
2022-11-26T06:11:45.611Z,99748.00
2022-11-26T06:14:12.527Z,99762.00
2022-11-26T06:16:45.877Z,99764.00
2022-11-26T06:19:12.813Z,99769.00
2022-11-26T06:21:39.686Z,99758.00
2022-11-26T06:24:13.831Z,99767.00
2022-11-26T06:26:40.958Z,99774.00
2022-11-26T06:29:14.749Z,99764.00
2022-11-26T06:31:47.830Z,99768.00
2022-11-26T06:34:22.774Z,99770.00
2022-11-26T06:36:49.681Z,99792.00
2022-11-26T06:39:22.766Z,99790.00
2022-11-26T06:41:49.676Z,99772.00
2022-11-26T06:44:22.833Z,99768.00
2022-11-26T06:46:49.723Z,99785.00
2022-11-26T06:49:29.813Z,99784.00
2022-11-26T06:51:56.651Z,99783.00
2022-11-26T06:54:23.591Z,99779.00
2022-11-26T06:56:56.828Z,99773.00
2022-11-26T06:59:23.757Z,99809.00
2022-11-26T07:01:50.837Z,99800.00
2022-11-26T07:04:24.769Z,99800.00
2022-11-26T07:06:57.765Z,99807.00
2022-11-26T07:09:24.671Z,99818.00
2022-11-26T07:11:51.564Z,99799.00
2022-11-26T07:14:24.786Z,99823.00
2022-11-26T07:16:51.690Z,99834.00
2022-11-26T07:19:24.817Z,99839.00
2022-11-26T07:21:51.706Z,99845.00
2022-11-26T07:24:24.812Z,99831.00
2022-11-26T07:26:57.788Z,99838.00
2022-11-26T07:29:24.691Z,99850.00
2022-11-26T07:31:57.836Z,99853.00
2022-11-26T07:34:24.765Z,99831.00
2022-11-26T07:36:56.632Z,99854.00
2022-11-26T07:39:31.798Z,99840.00
2022-11-26T07:41:58.645Z,99876.00
2022-11-26T07:44:31.812Z,99878.00
2022-11-26T07:46:58.672Z,99872.00
2022-11-26T07:49:31.798Z,99855.00
2022-11-26T07:51:58.674Z,99859.00
2022-11-26T07:54:31.835Z,99858.00
2022-11-26T07:56:58.670Z,99859.00
2022-11-26T07:59:31.815Z,99844.00
2022-11-26T08:01:58.864Z,99853.00
2022-11-26T08:04:32.834Z,99868.00
2022-11-26T08:07:05.789Z,99876.00
2022-11-26T08:09:38.821Z,99872.00
2022-11-26T08:12:12.818Z,99894.00
2022-11-26T08:14:39.851Z,99889.00
2022-11-26T08:17:13.814Z,99899.00
2022-11-26T08:19:40.673Z,99904.00
2022-11-26T08:22:13.826Z,99903.00
2022-11-26T08:24:46.853Z,99891.00
2022-11-26T08:27:13.709Z,99896.00
2022-11-26T08:29:46.833Z,99900.00
2022-11-26T08:32:19.867Z,99906.00
2022-11-26T08:34:46.768Z,99913.00
2022-11-26T08:37:13.673Z,99918.00
2022-11-26T08:39:46.816Z,99929.00
2022-11-26T08:42:13.684Z,99924.00
2022-11-26T08:44:40.760Z,99950.00
2022-11-26T08:47:14.901Z,99936.00
2022-11-26T08:49:41.743Z,99955.00
2022-11-26T08:52:14.860Z,99958.00
2022-11-26T08:54:48.077Z,99975.00
2022-11-26T08:57:15.181Z,99960.00
2022-11-26T08:59:48.872Z,99952.00
2022-11-26T09:02:21.853Z,99953.00
2022-11-26T09:04:48.804Z,99947.00
2022-11-26T09:07:21.935Z,99950.00
2022-11-26T09:09:48.862Z,99950.00
2022-11-26T09:12:15.784Z,99960.00
2022-11-26T09:14:48.884Z,99958.00
2022-11-26T09:17:15.873Z,99968.00
2022-11-26T09:19:48.858Z,99953.00
2022-11-26T09:22:15.757Z,99957.00
2022-11-26T09:24:49.151Z,99968.00
2022-11-26T09:27:16.100Z,99962.00
2022-11-26T09:29:42.997Z,99961.00
2022-11-26T09:32:24.315Z,99943.00
2022-11-26T09:34:53.131Z,99945.00
2022-11-26T09:37:26.899Z,99967.00
2022-11-26T09:40:00.874Z,99968.00
2022-11-26T09:42:47.885Z,99978.00
2022-11-26T09:45:40.469Z,99962.00
2022-11-26T09:48:24.906Z,99970.00
2022-11-26T09:51:03.896Z,99968.00
2022-11-26T09:53:47.863Z,99972.00
2022-11-26T09:56:26.231Z,99973.00
2022-11-26T09:59:10.917Z,99986.00
2022-11-26T10:01:37.836Z,99987.00
2022-11-26T10:04:13.897Z,99978.00
2022-11-26T10:07:05.471Z,100004.00
2022-11-26T10:09:52.225Z,99981.00
2022-11-26T10:13:27.504Z,100001.00
2022-11-26T10:16:32.875Z,100007.00
2022-11-26T10:19:23.742Z,99988.00
2022-11-26T10:22:00.194Z,99980.00
2022-11-26T10:24:42.548Z,100002.00
2022-11-26T10:27:26.948Z,99995.00
2022-11-26T10:30:09.570Z,99982.00
2022-11-26T10:32:45.931Z,99984.00
2022-11-26T10:35:27.594Z,99982.00
2022-11-26T10:38:03.933Z,99986.00
2022-11-26T10:40:31.801Z,99974.00
2022-11-26T10:43:09.902Z,99971.00
2022-11-26T10:45:54.326Z,99991.00
2022-11-26T10:48:40.927Z,99980.00
2022-11-26T10:51:17.630Z,99988.00
2022-11-26T10:54:03.893Z,99990.00
2022-11-26T10:56:47.012Z,99980.00
2022-11-26T10:59:35.877Z,99964.00
2022-11-26T11:02:05.819Z,99983.00
2022-11-26T11:04:43.265Z,99972.00
2022-11-26T11:07:40.991Z,99964.00
2022-11-26T11:10:18.016Z,99961.00
2022-11-26T11:13:17.888Z,99956.00
2022-11-26T11:15:44.712Z,99945.00
2022-11-26T11:18:24.957Z,99947.00
2022-11-26T11:20:53.728Z,99962.00
2022-11-26T11:23:52.654Z,99959.00
2022-11-26T11:26:23.509Z,99960.00
2022-11-26T11:28:58.920Z,99973.00
2022-11-26T11:31:32.974Z,99960.00
2022-11-26T11:34:33.967Z,99945.00
2022-11-26T11:37:17.406Z,99943.00
2022-11-26T11:39:50.949Z,99938.00
2022-11-26T11:42:23.258Z,99933.00
2022-11-26T11:44:50.378Z,99941.00
2022-11-26T11:47:49.897Z,99951.00
2022-11-26T11:50:51.942Z,99955.00
2022-11-26T11:53:40.041Z,99956.00
2022-11-26T11:56:42.231Z,99951.00
2022-11-26T11:59:59.955Z,99959.00
2022-11-26T12:02:55.499Z,99957.00
2022-11-26T12:05:37.924Z,99962.00
2022-11-26T12:08:13.455Z,99962.00
2022-11-26T12:11:01.963Z,99955.00
2022-11-26T12:13:34.945Z,99939.00
2022-11-26T12:16:12.057Z,99947.00
2022-11-26T12:19:08.914Z,99940.00
2022-11-26T12:22:11.938Z,99954.00
2022-11-26T12:25:00.930Z,99948.00
2022-11-26T12:27:44.116Z,99946.00
2022-11-26T12:30:28.059Z,99968.00
2022-11-26T12:33:13.976Z,99950.00
2022-11-26T12:35:52.028Z,99957.00
2022-11-26T12:38:53.938Z,99957.00
2022-11-26T12:41:35.981Z,99969.00
2022-11-26T12:44:27.330Z,99970.00
2022-11-26T12:47:23.971Z,99978.00
2022-11-26T12:50:20.740Z,99967.00
2022-11-26T12:53:14.012Z,99969.00
2022-11-26T12:55:54.936Z,99960.00
2022-11-26T12:58:33.982Z,99964.00
2022-11-26T13:01:07.038Z,99951.00
2022-11-26T13:03:39.937Z,99961.00
2022-11-26T13:06:43.927Z,99968.00
2022-11-26T13:09:20.997Z,99969.00
2022-11-26T13:12:11.617Z,99964.00
2022-11-26T13:15:06.988Z,99966.00
2022-11-26T13:17:48.155Z,99951.00
2022-11-26T13:21:00.989Z,99966.00
2022-11-26T13:23:45.858Z,99967.00
2022-11-26T13:26:32.026Z,99953.00
2022-11-26T13:29:16.885Z,99967.00
2022-11-26T13:32:27.178Z,99967.00
2022-11-26T13:35:11.758Z,99969.00
2022-11-26T13:38:11.952Z,99975.00
2022-11-26T13:40:58.918Z,99975.00
2022-11-26T13:44:06.977Z,99981.00
2022-11-26T13:46:55.243Z,99982.00
2022-11-26T13:49:51.976Z,99980.00
2022-11-26T13:52:25.892Z,99993.00
2022-11-26T13:55:18.989Z,99977.00
2022-11-26T13:57:49.903Z,99979.00
2022-11-26T14:00:38.040Z,99982.00
2022-11-26T14:03:04.925Z,99967.00
2022-11-26T14:05:57.084Z,99980.00
2022-11-26T14:08:43.703Z,99997.00
2022-11-26T14:11:22.282Z,99982.00
2022-11-26T14:14:31.987Z,99985.00
2022-11-26T14:17:01.983Z,99991.00
2022-11-26T14:19:47.996Z,99983.00
2022-11-26T14:22:27.007Z,99986.00
2022-11-26T14:25:11.406Z,99988.00
2022-11-26T14:28:01.026Z,99976.00
2022-11-26T14:30:34.021Z,99972.00
2022-11-26T14:33:31.152Z,99964.00
2022-11-26T14:36:05.070Z,99972.00
2022-11-26T14:38:39.037Z,99973.00
2022-11-26T14:41:06.395Z,99976.00
2022-11-26T14:43:40.043Z,99978.00
2022-11-26T14:46:16.414Z,99966.00
2022-11-26T14:48:58.571Z,99958.00
2022-11-26T14:51:33.059Z,99973.00
2022-11-26T14:53:59.952Z,99975.00
2022-11-26T14:56:33.061Z,99976.00
2022-11-26T14:59:07.133Z,99980.00
2022-11-26T15:01:34.045Z,99989.00
2022-11-26T15:04:10.047Z,99988.00
2022-11-26T15:06:38.050Z,99995.00
2022-11-26T15:09:20.052Z,99989.00
2022-11-26T15:12:14.065Z,100010.00
2022-11-26T15:14:58.091Z,100008.00
2022-11-26T15:17:26.342Z,100006.00
2022-11-26T15:20:00.060Z,100017.00
2022-11-26T15:22:46.055Z,100022.00
2022-11-26T15:25:33.826Z,100029.00
2022-11-26T15:28:24.065Z,100041.00
2022-11-26T15:31:02.190Z,100023.00
2022-11-26T15:33:38.104Z,100032.00
2022-11-26T15:36:17.551Z,100022.00
2022-11-26T15:39:05.534Z,100041.00
2022-11-26T15:41:42.272Z,100037.00
2022-11-26T15:44:35.485Z,100033.00
2022-11-26T15:47:06.030Z,100038.00
2022-11-26T15:49:44.133Z,100021.00
2022-11-26T15:52:19.112Z,100054.00
2022-11-26T15:55:12.061Z,100029.00
2022-11-26T15:57:47.104Z,100030.00
2022-11-26T16:00:37.128Z,100026.00
2022-11-26T16:03:04.201Z,100036.00
2022-11-26T16:05:44.053Z,100046.00
2022-11-26T16:08:28.549Z,100049.00
2022-11-26T16:11:04.122Z,100056.00
2022-11-26T16:13:32.137Z,100055.00
2022-11-26T16:16:24.112Z,100065.00
2022-11-26T16:19:08.123Z,100045.00
2022-11-26T16:21:35.032Z,100074.00
2022-11-26T16:24:11.104Z,100053.00
2022-11-26T16:27:00.008Z,100068.00
2022-11-26T16:29:35.179Z,100055.00
2022-11-26T16:32:02.371Z,100059.00
2022-11-26T16:34:29.297Z,100044.00
2022-11-26T16:37:27.116Z,100045.00
2022-11-26T16:40:09.119Z,100044.00
2022-11-26T16:42:43.148Z,100054.00
2022-11-26T16:45:11.901Z,100060.00
2022-11-26T16:47:54.105Z,100040.00
2022-11-26T16:50:30.148Z,100058.00
2022-11-26T16:52:57.125Z,100054.00
2022-11-26T16:55:26.151Z,100045.00
2022-11-26T16:58:05.124Z,100047.00
2022-11-26T17:00:32.019Z,100047.00
2022-11-26T17:03:05.963Z,100046.00
2022-11-26T17:05:41.145Z,100039.00
2022-11-26T17:08:11.217Z,100077.00
2022-11-26T17:10:38.248Z,100067.00
2022-11-26T17:13:12.120Z,100082.00
2022-11-26T17:15:38.967Z,100069.00
2022-11-26T17:18:21.150Z,100063.00
2022-11-26T17:20:48.690Z,100067.00
2022-11-26T17:23:22.129Z,100046.00
2022-11-26T17:25:52.419Z,100078.00
2022-11-26T17:28:19.358Z,100063.00
2022-11-26T17:30:53.227Z,100085.00
2022-11-26T17:33:20.121Z,100082.00
2022-11-26T17:35:53.133Z,100083.00
2022-11-26T17:38:21.112Z,100084.00
2022-11-26T17:40:55.135Z,100094.00
2022-11-26T17:43:22.018Z,100077.00
2022-11-26T17:45:55.222Z,100080.00
2022-11-26T17:48:26.492Z,100065.00
2022-11-26T17:51:06.184Z,100078.00
2022-11-26T17:53:33.088Z,100088.00
2022-11-26T17:55:59.983Z,100078.00
2022-11-26T17:58:33.174Z,100082.00
2022-11-26T18:01:06.201Z,100087.00
2022-11-26T18:03:33.092Z,100104.00
2022-11-26T18:05:59.984Z,100100.00
2022-11-26T18:08:33.162Z,100087.00
2022-11-26T18:11:00.040Z,100104.00
2022-11-26T18:13:34.188Z,100109.00
2022-11-26T18:16:07.293Z,100105.00
2022-11-26T18:18:34.276Z,100103.00
2022-11-26T18:21:01.205Z,100098.00
2022-11-26T18:23:34.138Z,100086.00
2022-11-26T18:26:01.988Z,100114.00
2022-11-26T18:28:35.176Z,100101.00
2022-11-26T18:31:02.090Z,100115.00
2022-11-26T18:33:29.016Z,100129.00
2022-11-26T18:36:02.169Z,100107.00
2022-11-26T18:38:35.176Z,100109.00
2022-11-26T18:41:09.950Z,100119.00
2022-11-26T18:43:44.164Z,100128.00
2022-11-26T18:46:20.229Z,100112.00
2022-11-26T18:48:48.865Z,100122.00
2022-11-26T18:51:22.161Z,100127.00
2022-11-26T18:53:55.868Z,100138.00
2022-11-26T18:56:30.220Z,100137.00
2022-11-26T18:58:57.116Z,100143.00
2022-11-26T19:01:29.218Z,100143.00
2022-11-26T19:04:04.151Z,100143.00
2022-11-26T19:06:32.093Z,100129.00
2022-11-26T19:09:08.189Z,100148.00
2022-11-26T19:11:35.270Z,100148.00
2022-11-26T19:14:09.194Z,100142.00
2022-11-26T19:16:36.072Z,100124.00
2022-11-26T19:19:09.222Z,100144.00
2022-11-26T19:21:36.196Z,100150.00
2022-11-26T19:24:12.144Z,100124.00
2022-11-26T19:26:39.115Z,100117.00
2022-11-26T19:29:06.604Z,100134.00
2022-11-26T19:31:41.270Z,100142.00
2022-11-26T19:34:20.196Z,100148.00
2022-11-26T19:36:53.176Z,100107.00
2022-11-26T19:39:20.063Z,100133.00
2022-11-26T19:41:53.213Z,100145.00
2022-11-26T19:44:20.158Z,100145.00
2022-11-26T19:46:53.176Z,100158.00
2022-11-26T19:49:20.029Z,100155.00
2022-11-26T19:51:53.169Z,100162.00
2022-11-26T19:54:20.179Z,100162.00
2022-11-26T19:56:53.159Z,100162.00
2022-11-26T19:59:27.227Z,100158.00
2022-11-26T20:01:54.171Z,100152.00
2022-11-26T20:04:21.142Z,100174.00
2022-11-26T20:06:54.375Z,100178.00
2022-11-26T20:09:21.339Z,100186.00
2022-11-26T20:11:55.289Z,100201.00
2022-11-26T20:14:22.548Z,100205.00
2022-11-26T20:16:49.603Z,100194.00
2022-11-26T20:19:23.221Z,100197.00
2022-11-26T20:21:50.248Z,100187.00
2022-11-26T20:24:24.369Z,100193.00
2022-11-26T20:26:51.393Z,100198.00
2022-11-26T20:29:26.510Z,100203.00
2022-11-26T20:31:53.841Z,100202.00
2022-11-26T20:34:30.251Z,100174.00
2022-11-26T20:36:57.316Z,100208.00
2022-11-26T20:39:31.255Z,100197.00
2022-11-26T20:42:04.250Z,100200.00
2022-11-26T20:44:38.254Z,100185.00
2022-11-26T20:47:05.276Z,100214.00
2022-11-26T20:49:42.973Z,100203.00
2022-11-26T20:52:10.335Z,100203.00
2022-11-26T20:54:44.205Z,100207.00
2022-11-26T20:57:11.615Z,100185.00
2022-11-26T20:59:38.853Z,100211.00
2022-11-26T21:02:12.371Z,100184.00
2022-11-26T21:04:39.246Z,100202.00
2022-11-26T21:07:06.138Z,100186.00
2022-11-26T21:09:39.448Z,100200.00
2022-11-26T21:12:06.641Z,100206.00
2022-11-26T21:14:40.233Z,100201.00
2022-11-26T21:17:07.203Z,100205.00
2022-11-26T21:19:40.535Z,100208.00
2022-11-26T21:22:14.248Z,100211.00
2022-11-26T21:24:47.294Z,100212.00
2022-11-26T21:27:14.270Z,100187.00
2022-11-26T21:29:47.285Z,100201.00
2022-11-26T21:32:20.308Z,100180.00
2022-11-26T21:34:54.289Z,100208.00
2022-11-26T21:37:21.626Z,100198.00
2022-11-26T21:39:55.273Z,100203.00
2022-11-26T21:42:28.226Z,100208.00
2022-11-26T21:44:55.168Z,100205.00
2022-11-26T21:47:28.274Z,100190.00
2022-11-26T21:49:55.255Z,100200.00
2022-11-26T21:52:28.281Z,100190.00
2022-11-26T21:54:57.436Z,100191.00
2022-11-26T21:57:38.213Z,100214.00
2022-11-26T22:00:06.333Z,100202.00
2022-11-26T22:02:39.336Z,100202.00
2022-11-26T22:05:13.316Z,100200.00
2022-11-26T22:07:40.662Z,100197.00
2022-11-26T22:10:15.310Z,100193.00
2022-11-26T22:12:42.265Z,100210.00
2022-11-26T22:15:16.340Z,100203.00
2022-11-26T22:17:43.384Z,100208.00
2022-11-26T22:20:17.344Z,100208.00
2022-11-26T22:22:44.236Z,100211.00
2022-11-26T22:25:17.297Z,100218.00
2022-11-26T22:27:44.252Z,100196.00
2022-11-26T22:30:11.776Z,100214.00
2022-11-26T22:32:45.285Z,100210.00
2022-11-26T22:35:12.236Z,100209.00
2022-11-26T22:37:45.270Z,100229.00
2022-11-26T22:40:12.661Z,100231.00
2022-11-26T22:42:47.323Z,100237.00
2022-11-26T22:45:14.399Z,100237.00
2022-11-26T22:47:52.586Z,100230.00
2022-11-26T22:50:26.351Z,100233.00
2022-11-26T22:52:53.324Z,100212.00
2022-11-26T22:55:26.288Z,100188.00
2022-11-26T22:57:53.328Z,100205.00
2022-11-26T23:00:52.359Z,100195.00
2022-11-26T23:03:19.802Z,100231.00
2022-11-26T23:05:47.168Z,100225.00
2022-11-26T23:08:21.329Z,100206.00
2022-11-26T23:10:48.631Z,100181.00
2022-11-26T23:13:22.331Z,100225.00
2022-11-26T23:15:56.413Z,100217.00
2022-11-26T23:18:23.565Z,100220.00
2022-11-26T23:20:50.671Z,100207.00
2022-11-26T23:23:24.352Z,100190.00
2022-11-26T23:25:51.478Z,100200.00
2022-11-26T23:28:25.405Z,100227.00
2022-11-26T23:30:59.416Z,100204.00
2022-11-26T23:33:26.565Z,100209.00
2022-11-26T23:35:53.638Z,100247.00
2022-11-26T23:38:27.383Z,100209.00
2022-11-26T23:41:00.387Z,100238.00
2022-11-26T23:43:34.395Z,100203.00
2022-11-26T23:46:26.247Z,100208.00
2022-11-26T23:49:00.392Z,100237.00
2022-11-26T23:51:30.256Z,100213.00
2022-11-26T23:54:04.336Z,100217.00
2022-11-26T23:56:33.107Z,100225.00
2022-11-26T23:59:01.832Z,100227.00
